Time;durP1;ratioP1;P1;durP2;ratioP2;P2;SDS_P1;SDS_P2;PMS_P1;PMS_P2;Temp;Humidity;BMP_temperature;BMP_pressure;BME280_temperature;BME280_humidity;BME280_pressure;Samples;Min_cycle;Max_cycle;Signal;HPM_P1;HPM_P2
2022/05/24 00:00:17;;;;;;;7.78;5.90;;;19.00;72.10;;;;;;2272288;59;21567;-81
2022/05/24 00:02:45;;;;;;;8.82;6.03;;;19.00;72.40;;;;;;2271996;59;21154;-81
2022/05/24 00:05:12;;;;;;;7.53;5.85;;;18.90;72.40;;;;;;2304175;55;21559;-81
2022/05/24 00:07:40;;;;;;;8.75;6.22;;;18.90;72.50;;;;;;2271325;59;21082;-79
2022/05/24 00:10:12;;;;;;;8.07;6.12;;;18.90;72.60;;;;;;2276874;55;21089;-81
2022/05/24 00:12:40;;;;;;;9.73;6.43;;;18.90;72.60;;;;;;2271414;59;21603;-80
2022/05/24 00:15:23;;;;;;;9.02;6.45;;;18.90;72.70;;;;;;2271927;59;21654;-81
2022/05/24 00:17:54;;;;;;;8.65;6.70;;;18.90;72.80;;;;;;2272889;59;21063;-81
2022/05/24 00:20:22;;;;;;;8.18;6.60;;;18.90;72.70;;;;;;2295568;55;21145;-80
2022/05/24 00:22:50;;;;;;;8.35;6.47;;;19.00;73.00;;;;;;2289828;55;21126;-80
2022/05/24 00:25:17;;;;;;;7.80;5.80;;;18.90;73.10;;;;;;2271765;59;21133;-81
2022/05/24 00:27:45;;;;;;;10.00;6.55;;;18.90;73.10;;;;;;2271647;59;21105;-81
2022/05/24 00:30:14;;;;;;;8.20;6.70;;;18.90;73.10;;;;;;2337137;55;21106;-80
2022/05/24 00:32:42;;;;;;;9.82;6.05;;;18.90;73.20;;;;;;2297175;55;22580;-80
2022/05/24 00:35:10;;;;;;;9.02;5.57;;;18.90;73.30;;;;;;2272651;59;21193;-79
2022/05/24 00:37:39;;;;;;;8.35;5.78;;;18.90;73.30;;;;;;2272294;59;21559;-80
2022/05/24 00:40:10;;;;;;;6.80;5.65;;;18.90;73.30;;;;;;2271710;59;21067;-82
2022/05/24 00:42:40;;;;;;;6.57;5.70;;;18.90;73.40;;;;;;2272601;59;21062;-82
2022/05/24 00:45:13;;;;;;;9.65;6.03;;;19.00;73.40;;;;;;2271753;59;21595;-81
2022/05/24 00:47:47;;;;;;;10.30;6.20;;;18.90;73.40;;;;;;2306267;55;22331;-80
2022/05/24 00:50:15;;;;;;;;;;;19.00;73.40;;;;;;2283683;55;21071;-80
2022/05/24 00:52:51;;;;;;;6.82;5.97;;;19.10;73.60;;;;;;2273823;55;20068;-81
2022/05/24 00:55:21;;;;;;;11.82;5.97;;;19.10;72.80;;;;;;2271235;59;21694;-80
2022/05/24 00:57:58;;;;;;;12.32;6.78;;;19.10;73.00;;;;;;2271775;59;21086;-79
2022/05/24 01:00:25;;;;;;;10.85;5.95;;;19.10;73.10;;;;;;2272046;59;21131;-80
2022/05/24 01:02:53;;;;;;;7.20;6.20;;;19.10;73.00;;;;;;2272045;59;21075;-80
2022/05/24 01:05:23;;;;;;;9.80;6.37;;;19.10;73.00;;;;;;2271448;59;21071;-79
2022/05/24 01:07:50;;;;;;;11.10;7.00;;;19.10;72.90;;;;;;2271638;59;22184;-82
2022/05/24 01:10:21;;;;;;;9.60;6.85;;;19.10;72.90;;;;;;2271982;59;21114;-80
2022/05/24 01:12:50;;;;;;;9.60;6.93;;;19.10;73.10;;;;;;2300673;55;21039;-80
2022/05/24 01:15:19;;;;;;;10.10;7.25;;;19.10;73.10;;;;;;2271757;59;21086;-80
2022/05/24 01:17:49;;;;;;;8.93;7.07;;;19.10;73.40;;;;;;2273975;55;22115;-80
2022/05/24 01:20:16;;;;;;;8.30;6.68;;;19.10;73.40;;;;;;2285996;55;21083;-80
2022/05/24 01:23:05;;;;;;;7.70;6.72;;;19.00;73.40;;;;;;2271951;57;21130;-81
2022/05/24 01:25:40;;;;;;;8.77;6.37;;;19.00;73.60;;;;;;2292197;55;21130;-81
2022/05/24 01:28:21;;;;;;;8.15;6.55;;;19.10;73.50;;;;;;2272822;59;21106;-80
2022/05/24 01:30:48;;;;;;;8.02;6.45;;;19.10;73.60;;;;;;2271902;59;21130;-78
2022/05/24 01:36:10;;;;;;;8.90;7.18;;;19.10;73.50;;;;;;2271937;55;21055;-81
2022/05/24 01:38:40;;;;;;;8.43;6.40;;;19.10;73.60;;;;;;2271577;59;21119;-81
2022/05/24 01:41:08;;;;;;;11.10;6.20;;;19.10;73.60;;;;;;2285371;55;21087;-78
2022/05/24 01:43:37;;;;;;;11.27;7.20;;;19.10;73.70;;;;;;2274150;55;21043;-80
2022/05/24 01:46:09;;;;;;;7.68;6.70;;;19.10;73.50;;;;;;2272290;59;21615;-81
2022/05/24 01:48:41;;;;;;;9.07;6.87;;;19.10;73.50;;;;;;2272352;59;21152;-80
2022/05/24 01:51:12;;;;;;;10.68;7.80;;;19.20;73.50;;;;;;2272209;57;22204;-80
2022/05/24 01:53:43;;;;;;;8.27;7.15;;;19.20;73.50;;;;;;2279088;55;21111;-82
2022/05/24 01:56:15;;;;;;;14.85;7.70;;;19.20;73.40;;;;;;2271492;59;21114;-81
2022/05/24 01:58:45;;;;;;;7.53;6.40;;;19.20;73.40;;;;;;2272015;59;21043;-80
2022/05/24 02:01:23;;;;;;;10.93;6.75;;;19.20;73.40;;;;;;2271932;59;21134;-80
2022/05/24 02:03:50;;;;;;;9.10;7.28;;;19.20;73.40;;;;;;2271991;59;21550;-80
2022/05/24 02:06:24;;;;;;;10.60;6.82;;;19.30;73.30;;;;;;2271603;59;21151;-81
2022/05/24 02:08:52;;;;;;;8.57;7.68;;;19.30;73.10;;;;;;2279475;55;21574;-83
2022/05/24 02:11:23;;;;;;;13.05;8.35;;;19.30;72.90;;;;;;2272492;59;21071;-82
2022/05/24 02:13:53;;;;;;;11.32;9.07;;;19.30;72.60;;;;;;2282875;55;21122;-81
2022/05/24 02:16:23;;;;;;;12.37;10.25;;;19.30;72.50;;;;;;2272618;59;21074;-81
2022/05/24 02:18:52;;;;;;;12.82;9.98;;;19.30;73.00;;;;;;2272543;59;21666;-81
2022/05/24 02:21:21;;;;;;;14.85;9.95;;;19.30;73.20;;;;;;2288906;55;21445;-80
2022/05/24 02:23:50;;;;;;;14.18;10.23;;;19.30;73.70;;;;;;2271592;59;21107;-81
2022/05/24 02:26:21;;;;;;;11.50;8.13;;;19.20;74.10;;;;;;2271752;59;21051;-81
2022/05/24 02:28:52;;;;;;;11.05;8.15;;;19.20;74.20;;;;;;2275569;55;21755;-82
2022/05/24 02:31:20;;;;;;;11.88;7.43;;;19.10;74.60;;;;;;2281119;55;21555;-82
2022/05/24 02:33:48;;;;;;;9.95;7.25;;;19.10;74.50;;;;;;2281658;55;21075;-81
2022/05/24 02:36:16;;;;;;;7.03;6.30;;;19.10;74.80;;;;;;2271390;59;21150;-82
2022/05/24 02:38:43;;;;;;;7.03;5.85;;;19.00;75.30;;;;;;2283433;55;21547;-82
2022/05/24 02:41:28;;;;;;;8.13;5.05;;;18.90;74.90;;;;;;2271693;59;21154;-82
2022/05/24 02:43:57;;;;;;;7.30;4.20;;;18.80;74.60;;;;;;2272060;59;21107;-81
2022/05/24 02:46:24;;;;;;;8.50;4.87;;;18.80;74.30;;;;;;2272437;55;21570;-84
2022/05/24 02:48:51;;;;;;;5.25;4.40;;;18.60;74.30;;;;;;2271470;59;21051;-81
2022/05/24 02:51:19;;;;;;;6.50;4.55;;;18.50;75.00;;;;;;2271153;59;21722;-80
2022/05/24 02:53:46;;;;;;;6.18;4.78;;;18.40;75.40;;;;;;2271504;59;21130;-81
2022/05/24 02:56:14;;;;;;;5.47;4.82;;;18.30;75.40;;;;;;2271324;59;21066;-81
2022/05/24 02:58:42;;;;;;;7.68;5.75;;;18.30;75.70;;;;;;2271651;59;21574;-81
2022/05/24 03:01:18;;;;;;;8.52;5.80;;;18.10;75.90;;;;;;2271518;59;21090;-82
2022/05/24 03:03:46;;;;;;;8.88;6.00;;;18.00;76.00;;;;;;2300894;55;21067;-82
2022/05/24 03:06:14;;;;;;;8.88;6.75;;;17.90;76.30;;;;;;2272111;59;21118;-82
2022/05/24 03:11:27;;;;;;;11.77;6.68;;;17.90;76.40;;;;;;2271936;55;21011;-82
2022/05/24 03:16:44;;;;;;;10.27;8.23;;;17.90;76.30;;;;;;2272012;55;21101;-83
2022/05/24 03:19:11;;;;;;;13.20;9.80;;;17.90;76.20;;;;;;2271554;59;21694;-81
2022/05/24 03:21:38;;;;;;;12.18;7.80;;;17.90;76.50;;;;;;2293498;55;21086;-83
2022/05/24 03:24:06;;;;;;;10.95;7.62;;;17.90;76.70;;;;;;2271636;59;21091;-82
2022/05/24 03:26:34;;;;;;;13.18;9.40;;;17.90;76.40;;;;;;2290504;55;21086;-80
2022/05/24 03:29:01;;;;;;;13.60;9.82;;;17.90;75.90;;;;;;2272140;59;21146;-80
2022/05/24 03:31:28;;;;;;;14.60;9.57;;;18.00;75.70;;;;;;2273491;55;21111;-80
2022/05/24 03:33:55;;;;;;;20.67;12.35;;;18.00;75.40;;;;;;2271190;59;21066;-79
2022/05/24 03:36:23;;;;;;;18.92;12.63;;;18.00;75.60;;;;;;2301366;55;21063;-78
2022/05/24 03:38:50;;;;;;;14.82;11.02;;;17.90;75.80;;;;;;2271830;59;21110;-81
2022/05/24 03:41:17;;;;;;;16.05;11.05;;;18.00;75.90;;;;;;2293420;55;21058;-80
2022/05/24 03:43:44;;;;;;;16.73;11.43;;;17.90;75.80;;;;;;2271813;59;21063;-79
2022/05/24 03:46:12;;;;;;;20.67;12.65;;;17.90;75.70;;;;;;2287227;55;21111;-81
2022/05/24 03:48:40;;;;;;;17.77;11.85;;;17.90;75.70;;;;;;2271844;59;21063;-82
2022/05/24 03:51:07;;;;;;;15.40;10.90;;;17.90;75.60;;;;;;2481923;53;68751;-75
2022/05/24 03:53:35;;;;;;;18.12;12.82;;;17.90;75.60;;;;;;2346749;57;21081;-75
2022/05/24 03:56:04;;;;;;;19.25;13.02;;;17.90;75.60;;;;;;2346560;57;21689;-76
2022/05/24 03:58:31;;;;;;;14.05;9.88;;;17.90;75.80;;;;;;2328532;57;21560;-76
2022/05/24 04:00:59;;;;;;;19.35;11.77;;;17.90;75.10;;;;;;2320212;58;21051;-76
2022/05/24 04:03:26;;;;;;;18.45;11.35;;;17.80;75.30;;;;;;2319067;58;21117;-76
2022/05/24 04:05:53;;;;;;;20.25;13.73;;;17.80;75.10;;;;;;2318748;58;21089;-76
2022/05/24 04:08:26;;;;;;;16.92;12.10;;;17.80;75.10;;;;;;2319582;58;21023;-76
2022/05/24 04:11:00;;;;;;;19.20;12.07;;;17.80;75.20;;;;;;2319205;58;22410;-76
2022/05/24 04:13:28;;;;;;;14.38;10.18;;;17.80;75.10;;;;;;2319896;58;21042;-76
2022/05/24 04:15:55;;;;;;;19.02;11.68;;;17.80;75.30;;;;;;2319225;58;21099;-76
2022/05/24 04:18:22;;;;;;;14.43;10.32;;;17.80;75.20;;;;;;2318192;58;21038;-76
2022/05/24 04:20:50;;;;;;;13.70;9.68;;;17.80;75.20;;;;;;2318807;58;21051;-76
2022/05/24 04:23:19;;;;;;;14.30;10.52;;;17.80;75.00;;;;;;2318325;58;21544;-75
2022/05/24 04:25:46;;;;;;;14.23;10.18;;;17.80;75.20;;;;;;2316635;58;21039;-76
2022/05/24 04:28:14;;;;;;;15.10;10.20;;;17.80;75.20;;;;;;2317633;58;21109;-75
2022/05/24 04:30:41;;;;;;;13.50;9.73;;;17.80;75.00;;;;;;2318597;58;21572;-75
2022/05/24 04:33:08;;;;;;;12.65;8.00;;;17.90;75.20;;;;;;2560663;54;21539;-75
2022/05/24 04:35:36;;;;;;;14.85;10.45;;;17.90;75.20;;;;;;2319647;58;21102;-75
2022/05/24 04:43:25;;;;;;;12.85;8.82;;;18.10;75.20;;;;;;2346353;57;21587;-74
2022/05/24 04:45:53;;;;;;;15.70;9.68;;;18.10;74.70;;;;;;2345744;57;21124;-74
2022/05/24 04:48:20;;;;;;;10.50;8.45;;;18.10;74.60;;;;;;2362911;56;21059;-74
2022/05/24 04:50:52;;;;;;;12.30;9.43;;;18.10;74.60;;;;;;2374474;56;21751;-74
2022/05/24 04:53:21;;;;;;;10.20;8.07;;;18.10;74.30;;;;;;2375441;56;21054;-74
2022/05/24 04:58:24;;;;;;;9.70;7.53;;;18.10;74.50;;;;;;2338340;57;22099;-74
2022/05/24 05:00:52;;;;;;;11.63;7.60;;;18.10;74.10;;;;;;2346275;57;21070;-74
2022/05/24 05:03:21;;;;;;;11.90;6.95;;;18.20;73.60;;;;;;2346937;57;21058;-75
2022/05/24 05:05:51;;;;;;;10.05;7.32;;;18.20;73.50;;;;;;2346946;57;21129;-74
2022/05/24 05:08:19;;;;;;;9.75;6.50;;;18.20;73.30;;;;;;2346959;57;21053;-74
2022/05/24 05:10:47;;;;;;;9.85;5.97;;;18.20;73.00;;;;;;2346469;57;21663;-75
2022/05/24 05:13:16;;;;;;;7.18;5.75;;;18.20;72.50;;;;;;2347017;57;21061;-75
2022/05/24 05:15:44;;;;;;;10.02;5.95;;;18.20;72.20;;;;;;2345551;57;21069;-75
2022/05/24 05:18:13;;;;;;;9.93;5.72;;;18.20;72.00;;;;;;2346570;57;21161;-74
2022/05/24 05:20:42;;;;;;;13.73;5.62;;;18.20;71.80;;;;;;2347653;57;21184;-74
2022/05/24 05:23:11;;;;;;;8.68;5.60;;;18.20;71.30;;;;;;2347561;57;21038;-74
2022/05/24 05:25:39;;;;;;;9.90;5.35;;;18.20;71.70;;;;;;2347507;57;21054;-74
2022/05/24 05:28:06;;;;;;;9.25;5.30;;;18.10;71.60;;;;;;2347204;57;21037;-74
2022/05/24 05:33:19;;;;;;;6.85;4.43;;;18.10;71.00;;;;;;2346527;57;21504;-74
2022/05/24 05:35:47;;;;;;;9.68;4.60;;;18.00;71.30;;;;;;2347249;57;21074;-74
2022/05/24 05:38:15;;;;;;;6.30;4.50;;;18.00;71.30;;;;;;2347591;57;21128;-74
2022/05/24 05:40:42;;;;;;;5.85;4.50;;;18.00;70.70;;;;;;2347664;57;21105;-74
2022/05/24 05:43:10;;;;;;;6.30;4.30;;;18.00;71.00;;;;;;2346657;57;21594;-74
2022/05/24 05:45:38;;;;;;;4.30;3.85;;;18.00;71.50;;;;;;2347134;57;21231;-74
2022/05/24 05:48:07;;;;;;;6.10;3.30;;;17.90;71.50;;;;;;2346147;57;21065;-74
2022/05/24 05:50:34;;;;;;;6.75;3.33;;;17.90;71.70;;;;;;2347680;57;21109;-74
2022/05/24 05:53:04;;;;;;;6.40;3.47;;;18.00;72.00;;;;;;2347760;57;21050;-74
2022/05/24 05:55:31;;;;;;;7.10;3.00;;;18.00;71.30;;;;;;2347604;57;21049;-74
2022/05/24 05:57:58;;;;;;;5.05;2.65;;;18.00;70.80;;;;;;2347507;57;21049;-74
2022/05/24 06:00:26;;;;;;;5.57;3.10;;;18.00;70.70;;;;;;2595112;52;21034;-74
2022/05/24 06:02:53;;;;;;;4.80;2.87;;;18.00;70.30;;;;;;2347549;57;21032;-74
2022/05/24 06:05:21;;;;;;;5.57;3.00;;;18.00;70.70;;;;;;2347260;57;21118;-74
2022/05/24 06:07:48;;;;;;;4.82;2.45;;;18.00;70.10;;;;;;2346833;57;21057;-74
2022/05/24 06:10:16;;;;;;;5.80;3.20;;;18.00;70.10;;;;;;2346760;57;21105;-74
2022/05/24 06:12:43;;;;;;;6.37;3.45;;;18.00;70.50;;;;;;2346810;57;21551;-74
2022/05/24 06:15:12;;;;;;;5.10;3.12;;;18.00;70.90;;;;;;2346561;57;21022;-74
2022/05/24 06:17:59;;;;;;;6.97;3.33;;;18.00;71.00;;;;;;2346024;57;21544;-74
2022/05/24 06:20:28;;;;;;;8.23;3.72;;;18.00;71.00;;;;;;2344308;57;21160;-74
2022/05/24 06:22:57;;;;;;;7.50;3.60;;;18.00;70.70;;;;;;2345209;57;21045;-74
2022/05/24 06:25:27;;;;;;;4.40;3.17;;;18.00;70.50;;;;;;2346262;57;21098;-74
2022/05/24 06:27:54;;;;;;;4.47;3.40;;;18.00;71.00;;;;;;2346014;57;21042;-74
2022/05/24 06:30:23;;;;;;;7.97;3.50;;;18.10;70.50;;;;;;2346579;57;21125;-74
2022/05/24 06:32:51;;;;;;;8.57;3.58;;;18.10;70.40;;;;;;2346729;57;21188;-74
2022/05/24 06:35:20;;;;;;;12.13;4.00;;;18.10;70.00;;;;;;2346527;57;21105;-74
2022/05/24 06:37:48;;;;;;;7.62;2.97;;;18.10;70.10;;;;;;2593019;52;22486;-74
2022/05/24 06:40:20;;;;;;;5.25;3.17;;;18.10;70.40;;;;;;2346478;57;21121;-74
2022/05/24 06:42:47;;;;;;;6.20;3.30;;;18.10;70.30;;;;;;2346523;57;21042;-74
2022/05/24 06:45:15;;;;;;;4.10;3.50;;;18.10;69.60;;;;;;2346437;57;21033;-74
2022/05/24 06:47:42;;;;;;;4.97;3.25;;;18.10;69.80;;;;;;2345593;57;21050;-74
2022/05/24 06:50:13;;;;;;;5.32;3.20;;;18.10;69.70;;;;;;2346645;57;21105;-74
2022/05/24 06:52:40;;;;;;;6.65;3.50;;;18.10;70.10;;;;;;2346810;57;21117;-74
2022/05/24 06:55:09;;;;;;;11.10;3.53;;;18.20;69.90;;;;;;2345929;57;21050;-74
2022/05/24 06:57:36;;;;;;;8.27;3.55;;;18.20;70.30;;;;;;2345670;57;21054;-73
2022/05/24 07:03:00;;;;;;;10.65;3.95;;;18.30;70.50;;;;;;2346456;57;21088;-74
2022/05/24 07:05:29;;;;;;;6.68;4.20;;;18.40;68.90;;;;;;2346281;57;21034;-74
2022/05/24 07:07:57;;;;;;;8.90;3.97;;;18.40;68.40;;;;;;2346038;57;21054;-74
2022/05/24 07:10:25;;;;;;;5.75;3.58;;;18.50;68.60;;;;;;2593341;53;21105;-74
2022/05/24 07:13:01;;;;;;;5.05;3.35;;;18.50;68.20;;;;;;2345880;57;21085;-74
2022/05/24 07:15:29;;;;;;;5.57;3.58;;;18.50;68.20;;;;;;2346175;57;21057;-74
2022/05/24 07:17:56;;;;;;;5.72;4.10;;;18.50;68.10;;;;;;2593690;52;21036;-74
2022/05/24 07:20:25;;;;;;;4.28;3.78;;;18.60;68.10;;;;;;2346468;57;21042;-74
2022/05/24 07:22:54;;;;;;;4.35;3.65;;;18.60;67.90;;;;;;2593211;53;21168;-74
2022/05/24 07:25:22;;;;;;;5.87;3.62;;;18.60;68.30;;;;;;2346296;57;21029;-74
2022/05/24 07:27:50;;;;;;;6.18;3.90;;;18.70;68.20;;;;;;2346378;57;21123;-74
2022/05/24 07:30:17;;;;;;;5.22;3.78;;;18.70;68.00;;;;;;2346470;57;21108;-74
2022/05/24 07:32:45;;;;;;;6.30;4.10;;;18.90;67.50;;;;;;2344462;57;21062;-74
2022/05/24 07:35:13;;;;;;;6.00;4.12;;;19.00;67.70;;;;;;2346205;57;21054;-74
2022/05/24 07:37:40;;;;;;;9.00;4.53;;;19.00;67.70;;;;;;2346057;57;21057;-74
2022/05/24 07:45:50;;;;;;;6.10;4.70;;;19.20;66.10;;;;;;2345954;57;21097;-74
2022/05/24 07:48:19;;;;;;;10.88;5.18;;;19.20;66.10;;;;;;2592265;53;21045;-74
2022/05/24 07:50:46;;;;;;;8.77;5.28;;;19.20;65.70;;;;;;2344997;57;21105;-74
2022/05/24 07:53:14;;;;;;;7.60;4.70;;;19.20;65.30;;;;;;2344554;57;21037;-75
2022/05/24 07:55:42;;;;;;;8.38;4.12;;;19.20;65.90;;;;;;2591135;53;21193;-74
2022/05/24 07:58:09;;;;;;;5.18;4.03;;;19.30;66.30;;;;;;2345602;57;22224;-74
2022/05/24 08:00:36;;;;;;;6.25;4.85;;;19.30;66.30;;;;;;2344002;57;21049;-74
2022/05/24 08:03:06;;;;;;;6.18;4.80;;;19.40;66.00;;;;;;2345821;57;21054;-74
2022/05/24 08:05:35;;;;;;;6.25;4.60;;;19.50;66.60;;;;;;2344924;57;21109;-74
2022/05/24 08:08:02;;;;;;;5.90;4.87;;;19.50;65.50;;;;;;2345277;57;21149;-74
2022/05/24 08:10:30;;;;;;;7.95;4.97;;;19.60;65.50;;;;;;2345824;57;21144;-74
2022/05/24 08:12:57;;;;;;;9.10;5.40;;;19.60;65.10;;;;;;2344887;57;21544;-74
2022/05/24 08:15:26;;;;;;;7.50;5.10;;;19.70;65.00;;;;;;2344846;57;21050;-74
2022/05/24 08:17:53;;;;;;;8.73;4.85;;;19.70;65.00;;;;;;2346109;57;21104;-74
2022/05/24 08:20:22;;;;;;;8.88;5.15;;;19.80;64.50;;;;;;2344668;57;21057;-74
2022/05/24 08:22:49;;;;;;;9.70;5.85;;;19.90;64.90;;;;;;2345527;57;21061;-74
2022/05/24 08:25:17;;;;;;;8.15;6.78;;;20.00;64.50;;;;;;2345757;57;21057;-74
2022/05/24 08:27:45;;;;;;;8.10;6.05;;;20.00;64.90;;;;;;2345716;57;21034;-74
2022/05/24 08:30:15;;;;;;;10.00;5.28;;;20.00;65.70;;;;;;2345267;57;21045;-75
2022/05/24 08:32:43;;;;;;;9.60;5.95;;;20.10;65.00;;;;;;2344881;57;21446;-74
2022/05/24 08:35:13;;;;;;;7.80;6.00;;;20.20;64.10;;;;;;2344870;57;21077;-74
2022/05/24 08:37:41;;;;;;;7.80;5.10;;;20.20;63.70;;;;;;2345458;57;21057;-74
2022/05/24 08:40:12;;;;;;;7.72;6.00;;;20.10;63.30;;;;;;2346130;57;21034;-74
2022/05/24 08:42:53;;;;;;;8.05;6.20;;;20.20;63.70;;;;;;2346109;57;21541;-74
2022/05/24 08:48:23;;;;;;;9.80;6.93;;;20.20;63.20;;;;;;2345695;57;21069;-74
2022/05/24 08:50:52;;;;;;;9.30;6.62;;;20.20;63.20;;;;;;2345546;57;21566;-74
2022/05/24 08:53:28;;;;;;;10.77;6.35;;;20.20;63.00;;;;;;2592467;53;21042;-75
2022/05/24 08:55:57;;;;;;;12.13;8.10;;;20.20;62.60;;;;;;2345324;57;21117;-74
2022/05/24 08:58:31;;;;;;;10.63;6.22;;;20.20;62.20;;;;;;2345325;57;21386;-74
2022/05/24 09:00:59;;;;;;;9.07;6.07;;;20.30;61.60;;;;;;2346167;57;21045;-74
2022/05/24 09:03:26;;;;;;;7.43;5.87;;;20.30;60.90;;;;;;2345551;57;21041;-74
2022/05/24 09:06:02;;;;;;;6.47;5.12;;;20.30;61.40;;;;;;2345592;57;21049;-75
2022/05/24 09:08:34;;;;;;;7.53;5.72;;;20.30;60.80;;;;;;2345252;57;21065;-74
2022/05/24 09:11:09;;;;;;;8.02;5.40;;;20.40;60.20;;;;;;2345784;57;21050;-74
2022/05/24 09:14:13;;;;;;;10.15;6.28;;;20.40;60.00;;;;;;2344955;57;21783;-74
2022/05/24 09:17:02;;;;;;;7.90;6.00;;;20.40;60.00;;;;;;2579853;53;21050;-74
2022/05/24 09:19:36;;;;;;;7.55;5.00;;;20.40;60.20;;;;;;2345329;57;21065;-74
2022/05/24 09:22:04;;;;;;;10.75;5.95;;;20.50;61.10;;;;;;2345990;57;21034;-74
2022/05/24 09:24:41;;;;;;;10.82;5.40;;;20.60;61.10;;;;;;2345904;57;21046;-74
2022/05/24 09:27:13;;;;;;;7.57;4.45;;;20.70;61.20;;;;;;2344422;57;21116;-74
2022/05/24 09:32:37;;;;;;;8.73;4.90;;;20.80;60.90;;;;;;2356015;57;23075;-74
2022/05/24 09:35:06;;;;;;;;;;;20.80;60.70;;;;;;2350246;57;21053;-74
2022/05/24 09:37:33;;;;;;;8.45;5.00;;;20.90;59.90;;;;;;2354426;56;20077;-74
2022/05/24 09:40:04;;;;;;;9.63;5.70;;;20.90;59.90;;;;;;2374627;56;21051;-74
2022/05/24 09:42:33;;;;;;;12.02;5.25;;;21.00;59.40;;;;;;2374338;56;21019;-74
2022/05/24 09:45:07;;;;;;;8.68;5.18;;;21.00;59.30;;;;;;2373564;56;21105;-74
2022/05/24 09:47:36;;;;;;;;;;;21.10;59.60;;;;;;2375430;56;21046;-74
2022/05/24 09:50:40;;;;;;;8.30;5.15;;;21.10;59.20;;;;;;2373220;56;20133;-74
2022/05/24 09:53:15;;;;;;;10.80;6.75;;;21.10;58.20;;;;;;2240870;60;21115;-76
2022/05/24 09:55:46;;;;;;;9.05;6.20;;;21.10;57.30;;;;;;2241344;60;21684;-76
2022/05/24 09:58:24;;;;;;;9.73;6.60;;;21.00;57.40;;;;;;2241399;60;21146;-77
2022/05/24 10:00:56;;;;;;;11.12;6.78;;;21.00;58.00;;;;;;2238441;60;21206;-77
2022/05/24 10:03:27;;;;;;;10.63;7.43;;;21.10;57.80;;;;;;2240234;60;21155;-77
2022/05/24 10:06:04;;;;;;;8.90;6.35;;;21.10;57.70;;;;;;2241196;60;21048;-78
2022/05/24 10:08:36;;;;;;;8.13;5.60;;;21.20;57.80;;;;;;2242247;60;21621;-77
2022/05/24 10:11:04;;;;;;;12.05;6.47;;;21.10;57.30;;;;;;2241870;60;21147;-77
2022/05/24 10:13:44;;;;;;;7.05;5.40;;;21.20;56.80;;;;;;2241397;60;21083;-77
2022/05/24 10:19:19;;;;;;;8.50;5.97;;;21.20;56.70;;;;;;2333865;57;22115;-77
2022/05/24 10:21:57;;;;;;;7.95;5.72;;;21.20;56.20;;;;;;2319762;58;21198;-76
2022/05/24 10:24:38;;;;;;;9.77;5.57;;;21.20;55.90;;;;;;2319310;58;21131;-77
2022/05/24 10:27:13;;;;;;;9.65;5.82;;;21.20;56.50;;;;;;2318222;58;21119;-76
2022/05/24 10:29:50;;;;;;;9.73;5.53;;;21.20;56.80;;;;;;2320245;58;21424;-76
2022/05/24 10:38:20;;;;;;;10.38;5.15;;;21.20;56.40;;;;;;2320011;58;21076;-76
2022/05/24 10:41:03;;;;;;;4.50;3.58;;;21.10;56.20;;;;;;2320589;58;21028;-76
2022/05/24 10:43:50;;;;;;;5.53;3.50;;;20.90;54.40;;;;;;2320095;58;21103;-76
2022/05/24 10:46:21;;;;;;;4.97;3.75;;;20.80;54.10;;;;;;2319215;58;21040;-76
2022/05/24 10:48:57;;;;;;;7.70;4.00;;;20.60;55.10;;;;;;2319150;58;21060;-77
2022/05/24 10:51:29;;;;;;;8.00;4.30;;;20.50;55.90;;;;;;2319815;58;21044;-76
2022/05/24 10:54:01;;;;;;;6.95;4.90;;;20.40;56.10;;;;;;2319983;58;21119;-76
2022/05/24 10:56:40;;;;;;;7.20;5.05;;;20.30;56.40;;;;;;2319094;58;21052;-77
2022/05/24 10:59:15;;;;;;;7.15;4.40;;;20.20;57.20;;;;;;2319296;58;21064;-76
2022/05/24 11:01:50;;;;;;;6.05;4.68;;;20.20;57.70;;;;;;2319781;58;21126;-76
2022/05/24 11:04:34;;;;;;;9.75;5.62;;;20.20;58.30;;;;;;2320513;58;21136;-77
2022/05/24 11:07:10;;;;;;;9.77;5.72;;;20.30;58.20;;;;;;2320080;58;21064;-77
2022/05/24 11:09:42;;;;;;;7.28;4.90;;;20.40;58.50;;;;;;2320086;58;21063;-77
2022/05/24 11:12:17;;;;;;;6.62;5.50;;;20.40;58.90;;;;;;2319806;58;21064;-78
2022/05/24 11:14:49;;;;;;;7.50;5.03;;;20.40;58.70;;;;;;2320254;58;21111;-76
2022/05/24 11:17:18;;;;;;;8.27;5.20;;;20.50;59.20;;;;;;2319085;58;21111;-76
2022/05/24 11:19:49;;;;;;;8.80;6.28;;;20.50;59.40;;;;;;2320343;58;21135;-77
2022/05/24 11:22:23;;;;;;;16.60;7.05;;;20.50;59.50;;;;;;2320201;58;21032;-77
2022/05/24 11:24:57;;;;;;;11.38;6.12;;;20.50;59.10;;;;;;2320287;58;21131;-77
2022/05/24 11:27:29;;;;;;;8.55;5.28;;;20.50;59.50;;;;;;2319678;58;21056;-77
2022/05/24 11:30:00;;;;;;;11.88;6.68;;;20.40;59.80;;;;;;2561116;54;21123;-76
2022/05/24 11:32:35;;;;;;;11.65;6.50;;;20.40;60.20;;;;;;2319254;58;21116;-77
2022/05/24 11:35:07;;;;;;;7.70;5.55;;;20.30;61.00;;;;;;2318155;58;21123;-76
2022/05/24 11:37:37;;;;;;;11.30;7.32;;;20.30;61.40;;;;;;2317665;58;21028;-76
2022/05/24 11:40:31;;;;;;;8.38;7.18;;;20.40;61.60;;;;;;2318638;58;21052;-77
2022/05/24 11:42:59;;;;;;;11.90;7.32;;;20.40;62.20;;;;;;2319116;58;21108;-76
2022/05/24 11:46:03;;;;;;;9.82;7.15;;;20.30;61.70;;;;;;2317843;58;21052;-76
2022/05/24 11:48:46;;;;;;;12.55;7.43;;;20.30;61.90;;;;;;2318749;58;21076;-76
2022/05/24 11:51:39;;;;;;;11.88;8.00;;;20.20;61.90;;;;;;2319170;58;21621;-76
2022/05/24 11:54:53;;;;;;;10.38;7.72;;;20.10;62.70;;;;;;2318731;58;21179;-76
2022/05/24 11:57:27;;;;;;;12.20;7.75;;;20.00;62.60;;;;;;2318452;58;21131;-77
2022/05/24 11:59:55;;;;;;;10.60;8.00;;;20.00;63.10;;;;;;2559835;54;21048;-77
2022/05/24 12:08:37;;;;;;;12.27;6.40;;;20.10;65.20;;;;;;2318507;58;21020;-76
2022/05/24 12:11:17;;;;;;;9.27;7.00;;;20.20;64.90;;;;;;2318617;58;21048;-77
2022/05/24 12:14:10;;;;;;;12.75;5.97;;;20.30;64.40;;;;;;2318650;58;21056;-76
2022/05/24 12:16:46;;;;;;;7.45;5.70;;;20.20;64.50;;;;;;2317743;58;21072;-77
2022/05/24 12:19:44;;;;;;;11.27;6.28;;;20.30;63.70;;;;;;2318880;58;21064;-77
2022/05/24 12:22:12;;;;;;;7.32;4.95;;;20.40;63.60;;;;;;2318165;58;21067;-77
2022/05/24 12:24:49;;;;;;;7.18;4.75;;;20.40;62.40;;;;;;2318734;58;21123;-76
2022/05/24 12:27:28;;;;;;;7.40;4.65;;;20.40;62.90;;;;;;2318201;58;21127;-77
2022/05/24 12:30:40;;;;;;;4.82;3.37;;;20.40;62.70;;;;;;2317624;58;21067;-77
2022/05/24 12:33:34;;;;;;;8.50;3.47;;;20.50;62.20;;;;;;2318837;58;21048;-77
2022/05/24 12:36:17;;;;;;;6.20;3.28;;;20.60;61.50;;;;;;2317031;58;21146;-77
2022/05/24 12:38:49;;;;;;;7.35;3.30;;;20.70;61.00;;;;;;2318880;58;21064;-76
2022/05/24 12:41:21;;;;;;;6.30;3.28;;;20.70;61.00;;;;;;2319079;58;21060;-77
2022/05/24 12:43:56;;;;;;;6.12;3.28;;;20.80;60.10;;;;;;2318740;58;21068;-76
2022/05/24 12:46:28;;;;;;;5.37;3.92;;;20.80;61.10;;;;;;2318489;58;21095;-77
2022/05/24 12:49:01;;;;;;;5.90;3.85;;;20.90;60.90;;;;;;2318948;58;21115;-77
2022/05/24 12:51:28;;;;;;;;;;;21.00;60.40;;;;;;2322328;58;21044;-76
2022/05/24 12:53:55;;;;;;;6.65;4.05;;;21.00;59.10;;;;;;2318721;58;20064;-78
2022/05/24 12:56:23;;;;;;;9.60;4.32;;;21.10;59.10;;;;;;2318658;58;21132;-76
2022/05/24 12:58:52;;;;;;;6.65;4.47;;;21.10;58.50;;;;;;2318543;57;21048;-76
2022/05/24 13:04:08;;;;;;;7.40;4.18;;;21.20;59.00;;;;;;2356044;57;22074;-77
2022/05/24 13:06:37;;;;;;;6.47;3.55;;;21.10;57.60;;;;;;2347125;57;21351;-76
2022/05/24 13:09:22;;;;;;;5.28;3.60;;;21.10;57.90;;;;;;2372774;56;21101;-77
2022/05/24 13:11:53;;;;;;;6.93;3.70;;;21.10;58.20;;;;;;2374826;56;21046;-77
2022/05/24 13:14:48;;;;;;;8.25;3.35;;;21.10;58.00;;;;;;2374727;56;21113;-77
2022/05/24 13:17:20;;;;;;;3.72;3.22;;;21.20;58.20;;;;;;2374210;56;21046;-77
2022/05/24 13:19:53;;;;;;;8.23;4.28;;;21.30;57.70;;;;;;2374918;56;21521;-77
2022/05/24 13:22:22;;;;;;;7.28;3.65;;;21.40;57.30;;;;;;2375224;56;21035;-77
2022/05/24 13:24:54;;;;;;;8.10;2.75;;;21.50;56.40;;;;;;2374928;56;21051;-77
2022/05/24 13:27:21;;;;;;;6.00;3.72;;;21.60;55.70;;;;;;2373449;56;21545;-77
2022/05/24 13:35:30;;;;;;;8.73;3.62;;;21.50;55.20;;;;;;2374393;56;21587;-77
2022/05/24 13:37:59;;;;;;;4.80;2.70;;;21.50;55.20;;;;;;2374763;56;21066;-77
2022/05/24 13:40:39;;;;;;;4.65;2.62;;;21.50;55.20;;;;;;2374740;56;21126;-76
2022/05/24 13:43:07;;;;;;;3.67;2.60;;;21.40;54.10;;;;;;2374990;56;21047;-77
2022/05/24 13:45:38;;;;;;;3.90;2.87;;;21.30;53.90;;;;;;2373967;56;21086;-76
2022/05/24 13:48:25;;;;;;;6.32;2.60;;;21.30;53.80;;;;;;2374917;56;21055;-77
2022/05/24 13:51:03;;;;;;;5.00;2.87;;;21.20;54.10;;;;;;2375046;56;21624;-76
2022/05/24 13:53:36;;;;;;;5.60;2.90;;;21.20;54.30;;;;;;2375034;56;21114;-77
2022/05/24 13:56:06;;;;;;;5.35;2.97;;;21.20;54.30;;;;;;2374172;56;21051;-77
2022/05/24 13:58:36;;;;;;;4.05;2.60;;;21.20;54.60;;;;;;2374737;56;21139;-76
2022/05/24 14:01:07;;;;;;;4.03;2.87;;;21.40;55.30;;;;;;2375160;56;21050;-77